sensor_id;sensor_type;location;lat;lon;timestamp;pressure;altitude;pressure_sealevel;temperature
65765;BMP180;52915;53.718;19.946;2022-12-01T00:03:48;101875.40;;;2.40
65765;BMP180;52915;53.718;19.946;2022-12-01T00:08:51;101876.80;;;2.40
65765;BMP180;52915;53.718;19.946;2022-12-01T00:14:20;101874.60;;;2.32
65765;BMP180;52915;53.718;19.946;2022-12-01T00:19:25;101875.40;;;2.46
65765;BMP180;52915;53.718;19.946;2022-12-01T00:24:28;101880.40;;;2.50
65765;BMP180;52915;53.718;19.946;2022-12-01T00:29:30;101883.00;;;2.50
65765;BMP180;52915;53.718;19.946;2022-12-01T00:34:32;101884.00;;;2.60
65765;BMP180;52915;53.718;19.946;2022-12-01T00:39:36;101882.60;;;2.50
65765;BMP180;52915;53.718;19.946;2022-12-01T00:44:38;101879.20;;;2.60
65765;BMP180;52915;53.718;19.946;2022-12-01T00:49:41;101878.60;;;2.60
65765;BMP180;52915;53.718;19.946;2022-12-01T00:54:46;101874.40;;;2.50
65765;BMP180;52915;53.718;19.946;2022-12-01T00:59:49;101872.40;;;2.60
65765;BMP180;52915;53.718;19.946;2022-12-01T01:04:51;101871.40;;;2.50
65765;BMP180;52915;53.718;19.946;2022-12-01T01:09:54;101869.60;;;2.40
65765;BMP180;52915;53.718;19.946;2022-12-01T01:14:56;101870.60;;;2.50
65765;BMP180;52915;53.718;19.946;2022-12-01T01:19:58;101861.60;;;2.38
65765;BMP180;52915;53.718;19.946;2022-12-01T01:25:01;101860.80;;;2.40
65765;BMP180;52915;53.718;19.946;2022-12-01T01:30:04;101860.00;;;2.30
65765;BMP180;52915;53.718;19.946;2022-12-01T01:35:07;101856.40;;;2.34
65765;BMP180;52915;53.718;19.946;2022-12-01T01:40:10;101851.80;;;2.30
65765;BMP180;52915;53.718;19.946;2022-12-01T01:45:23;101853.40;;;2.30
65765;BMP180;52915;53.718;19.946;2022-12-01T01:50:27;101850.80;;;2.30
65765;BMP180;52915;53.718;19.946;2022-12-01T01:55:34;101852.80;;;2.20
65765;BMP180;52915;53.718;19.946;2022-12-01T02:00:42;101845.40;;;2.24
65765;BMP180;52915;53.718;19.946;2022-12-01T02:05:46;101846.00;;;2.16
65765;BMP180;52915;53.718;19.946;2022-12-01T02:22:41;101837.40;;;2.20
65765;BMP180;52915;53.718;19.946;2022-12-01T02:33:35;101850.00;;;2.30
65765;BMP180;52915;53.718;19.946;2022-12-01T02:39:39;101851.00;;;2.40
65765;BMP180;52915;53.718;19.946;2022-12-01T02:44:40;101852.40;;;2.40
65765;BMP180;52915;53.718;19.946;2022-12-01T02:49:50;101855.20;;;2.30
65765;BMP180;52915;53.718;19.946;2022-12-01T02:54:55;101853.00;;;2.20
65765;BMP180;52915;53.718;19.946;2022-12-01T02:59:58;101852.00;;;2.20
65765;BMP180;52915;53.718;19.946;2022-12-01T03:05:25;101853.20;;;2.20
65765;BMP180;52915;53.718;19.946;2022-12-01T03:21:37;101848.00;;;2.26
65765;BMP180;52915;53.718;19.946;2022-12-01T03:26:46;101844.80;;;2.60
65765;BMP180;52915;53.718;19.946;2022-12-01T03:31:56;101851.00;;;2.60
65765;BMP180;52915;53.718;19.946;2022-12-01T03:37:08;101849.60;;;2.50
65765;BMP180;52915;53.718;19.946;2022-12-01T03:42:25;101852.60;;;2.40
65765;BMP180;52915;53.718;19.946;2022-12-01T03:47:30;101856.40;;;2.30
65765;BMP180;52915;53.718;19.946;2022-12-01T03:52:52;101849.80;;;2.20
65765;BMP180;52915;53.718;19.946;2022-12-01T03:58:15;101852.20;;;2.10
65765;BMP180;52915;53.718;19.946;2022-12-01T04:03:23;101853.00;;;2.00
65765;BMP180;52915;53.718;19.946;2022-12-01T04:08:26;101855.80;;;2.20
65765;BMP180;52915;53.718;19.946;2022-12-01T04:13:29;101858.60;;;2.40
65765;BMP180;52915;53.718;19.946;2022-12-01T04:18:31;101851.20;;;2.50
65765;BMP180;52915;53.718;19.946;2022-12-01T04:23:33;101849.80;;;2.40
65765;BMP180;52915;53.718;19.946;2022-12-01T04:28:55;101845.80;;;2.28
65765;BMP180;52915;53.718;19.946;2022-12-01T04:33:58;101843.40;;;2.20
65765;BMP180;52915;53.718;19.946;2022-12-01T04:39:02;101844.00;;;2.10
65765;BMP180;52915;53.718;19.946;2022-12-01T04:44:04;101842.40;;;2.00
65765;BMP180;52915;53.718;19.946;2022-12-01T04:49:07;101846.40;;;2.18
65765;BMP180;52915;53.718;19.946;2022-12-01T04:54:10;101848.60;;;2.46
65765;BMP180;52915;53.718;19.946;2022-12-01T04:59:12;101849.40;;;2.50
65765;BMP180;52915;53.718;19.946;2022-12-01T05:04:15;101853.00;;;2.36
65765;BMP180;52915;53.718;19.946;2022-12-01T05:09:17;101848.40;;;2.20
65765;BMP180;52915;53.718;19.946;2022-12-01T05:14:22;101852.40;;;2.10
65765;BMP180;52915;53.718;19.946;2022-12-01T05:19:25;101848.80;;;2.10
65765;BMP180;52915;53.718;19.946;2022-12-01T05:24:47;101853.60;;;2.36
65765;BMP180;52915;53.718;19.946;2022-12-01T05:29:49;101856.80;;;2.50
65765;BMP180;52915;53.718;19.946;2022-12-01T05:34:51;101855.60;;;2.40
65765;BMP180;52915;53.718;19.946;2022-12-01T05:39:54;101856.00;;;2.30
65765;BMP180;52915;53.718;19.946;2022-12-01T05:44:56;101855.40;;;2.10
65765;BMP180;52915;53.718;19.946;2022-12-01T05:49:59;101859.80;;;2.00
65765;BMP180;52915;53.718;19.946;2022-12-01T05:55:08;101861.00;;;2.10
65765;BMP180;52915;53.718;19.946;2022-12-01T06:00:12;101859.60;;;2.34
65765;BMP180;52915;53.718;19.946;2022-12-01T06:05:15;101865.20;;;2.50
65765;BMP180;52915;53.718;19.946;2022-12-01T06:10:17;101864.80;;;2.40
65765;BMP180;52915;53.718;19.946;2022-12-01T06:15:20;101868.80;;;2.30
65765;BMP180;52915;53.718;19.946;2022-12-01T06:20:22;101865.20;;;2.20
65765;BMP180;52915;53.718;19.946;2022-12-01T06:25:25;101863.40;;;2.28
65765;BMP180;52915;53.718;19.946;2022-12-01T06:30:28;101864.80;;;2.50
65765;BMP180;52915;53.718;19.946;2022-12-01T06:35:30;101872.20;;;2.60
65765;BMP180;52915;53.718;19.946;2022-12-01T06:40:33;101873.60;;;2.50
65765;BMP180;52915;53.718;19.946;2022-12-01T06:45:35;101874.80;;;2.40
65765;BMP180;52915;53.718;19.946;2022-12-01T06:50:37;101877.40;;;2.30
65765;BMP180;52915;53.718;19.946;2022-12-01T06:55:40;101875.20;;;2.26
65765;BMP180;52915;53.718;19.946;2022-12-01T07:00:42;101873.20;;;2.30
65765;BMP180;52915;53.718;19.946;2022-12-01T07:06:00;101871.00;;;2.50
65765;BMP180;52915;53.718;19.946;2022-12-01T07:11:09;101866.60;;;2.72
65765;BMP180;52915;53.718;19.946;2022-12-01T07:16:13;101863.80;;;2.70
65765;BMP180;52915;53.718;19.946;2022-12-01T07:21:16;101875.40;;;2.50
65765;BMP180;52915;53.718;19.946;2022-12-01T07:26:18;101877.60;;;2.40
65765;BMP180;52915;53.718;19.946;2022-12-01T07:31:20;101875.20;;;2.30
65765;BMP180;52915;53.718;19.946;2022-12-01T07:36:23;101879.60;;;2.40
65765;BMP180;52915;53.718;19.946;2022-12-01T07:41:26;101881.60;;;2.68
65765;BMP180;52915;53.718;19.946;2022-12-01T07:46:28;101890.20;;;2.80
65765;BMP180;52915;53.718;19.946;2022-12-01T07:51:33;101878.60;;;2.70
65765;BMP180;52915;53.718;19.946;2022-12-01T07:56:36;101881.00;;;2.60
65765;BMP180;52915;53.718;19.946;2022-12-01T08:01:38;101877.20;;;2.50
65765;BMP180;52915;53.718;19.946;2022-12-01T08:06:46;101876.60;;;2.50
65765;BMP180;52915;53.718;19.946;2022-12-01T08:11:48;101877.00;;;2.70
65765;BMP180;52915;53.718;19.946;2022-12-01T08:16:51;101873.20;;;2.90
65765;BMP180;52915;53.718;19.946;2022-12-01T08:21:53;101876.80;;;2.90
65765;BMP180;52915;53.718;19.946;2022-12-01T08:26:55;101882.40;;;2.80
65765;BMP180;52915;53.718;19.946;2022-12-01T08:31:58;101881.80;;;2.70
65765;BMP180;52915;53.718;19.946;2022-12-01T08:37:00;101873.80;;;2.64
65765;BMP180;52915;53.718;19.946;2022-12-01T08:42:03;101878.20;;;2.70
65765;BMP180;52915;53.718;19.946;2022-12-01T08:47:05;101880.60;;;3.00
65765;BMP180;52915;53.718;19.946;2022-12-01T08:52:07;101883.80;;;3.10
65765;BMP180;52915;53.718;19.946;2022-12-01T08:57:10;101879.40;;;3.00
65765;BMP180;52915;53.718;19.946;2022-12-01T09:02:14;101883.60;;;2.90
65765;BMP180;52915;53.718;19.946;2022-12-01T09:07:18;101887.40;;;2.78
65765;BMP180;52915;53.718;19.946;2022-12-01T09:12:29;101881.20;;;2.70
65765;BMP180;52915;53.718;19.946;2022-12-01T09:17:31;101884.80;;;3.00
65765;BMP180;52915;53.718;19.946;2022-12-01T09:22:33;101882.40;;;3.20
65765;BMP180;52915;53.718;19.946;2022-12-01T09:27:36;101882.40;;;3.30
65765;BMP180;52915;53.718;19.946;2022-12-01T09:32:38;101872.20;;;3.18
65765;BMP180;52915;53.718;19.946;2022-12-01T09:37:41;101870.00;;;3.10
65765;BMP180;52915;53.718;19.946;2022-12-01T09:42:45;101860.20;;;3.10
65765;BMP180;52915;53.718;19.946;2022-12-01T09:47:48;101860.60;;;3.04
65765;BMP180;52915;53.718;19.946;2022-12-01T09:53:06;101854.80;;;3.20
65765;BMP180;52915;53.718;19.946;2022-12-01T09:58:18;101851.80;;;3.56
65765;BMP180;52915;53.718;19.946;2022-12-01T10:03:44;101844.40;;;3.60
65765;BMP180;52915;53.718;19.946;2022-12-01T10:14:35;101844.00;;;3.40
65765;BMP180;52915;53.718;19.946;2022-12-01T10:25:27;101848.40;;;3.80
65765;BMP180;52915;53.718;19.946;2022-12-01T10:30:30;101843.80;;;3.80
65765;BMP180;52915;53.718;19.946;2022-12-01T10:35:33;101841.40;;;3.70
65765;BMP180;52915;53.718;19.946;2022-12-01T10:40:40;101835.60;;;3.60
65765;BMP180;52915;53.718;19.946;2022-12-01T10:45:43;101841.00;;;3.80
65765;BMP180;52915;53.718;19.946;2022-12-01T10:50:56;101837.40;;;3.90
65765;BMP180;52915;53.718;19.946;2022-12-01T10:56:19;101833.00;;;3.90
65765;BMP180;52915;53.718;19.946;2022-12-01T11:01:30;101832.00;;;3.80
65765;BMP180;52915;53.718;19.946;2022-12-01T11:06:36;101833.80;;;3.90
65765;BMP180;52915;53.718;19.946;2022-12-01T11:11:39;101836.80;;;4.06
65765;BMP180;52915;53.718;19.946;2022-12-01T11:16:46;101829.80;;;3.98
65765;BMP180;52915;53.718;19.946;2022-12-01T11:21:54;101828.60;;;3.80
65765;BMP180;52915;53.718;19.946;2022-12-01T11:26:59;101826.40;;;3.80
65765;BMP180;52915;53.718;19.946;2022-12-01T11:32:26;101824.60;;;3.72
65765;BMP180;52915;53.718;19.946;2022-12-01T11:37:38;101826.20;;;4.00
65765;BMP180;52915;53.718;19.946;2022-12-01T11:43:04;101821.80;;;4.00
65765;BMP180;52915;53.718;19.946;2022-12-01T11:53:33;101814.40;;;3.72
65765;BMP180;52915;53.718;19.946;2022-12-01T11:58:35;101810.20;;;3.70
65765;BMP180;52915;53.718;19.946;2022-12-01T12:15:10;101804.00;;;4.00
65765;BMP180;52915;53.718;19.946;2022-12-01T12:43:13;101797.40;;;3.72
65765;BMP180;52915;53.718;19.946;2022-12-01T13:04:36;101778.00;;;3.50
65765;BMP180;52915;53.718;19.946;2022-12-01T13:09:49;101770.60;;;3.50
65765;BMP180;52915;53.718;19.946;2022-12-01T13:15:19;101773.40;;;3.70
65765;BMP180;52915;53.718;19.946;2022-12-01T13:20:27;101771.60;;;3.70
65765;BMP180;52915;53.718;19.946;2022-12-01T13:25:38;101765.60;;;3.50
65765;BMP180;52915;53.718;19.946;2022-12-01T13:31:05;101762.00;;;3.50
65765;BMP180;52915;53.718;19.946;2022-12-01T13:36:10;101763.80;;;3.66
65765;BMP180;52915;53.718;19.946;2022-12-01T13:41:37;101762.40;;;3.68
65765;BMP180;52915;53.718;19.946;2022-12-01T13:57:29;101771.80;;;3.20
65765;BMP180;52915;53.718;19.946;2022-12-01T14:02:34;101770.00;;;3.40
65765;BMP180;52915;53.718;19.946;2022-12-01T14:07:38;101766.60;;;3.40
65765;BMP180;52915;53.718;19.946;2022-12-01T14:12:44;101763.60;;;3.30
65765;BMP180;52915;53.718;19.946;2022-12-01T14:17:58;101771.40;;;3.20
65765;BMP180;52915;53.718;19.946;2022-12-01T14:23:11;101764.60;;;3.30
65765;BMP180;52915;53.718;19.946;2022-12-01T14:28:16;101754.80;;;3.50
65765;BMP180;52915;53.718;19.946;2022-12-01T14:38:43;101750.00;;;3.30
65765;BMP180;52915;53.718;19.946;2022-12-01T14:43:51;101746.80;;;3.10
65765;BMP180;52915;53.718;19.946;2022-12-01T14:49:28;101748.00;;;3.10
65765;BMP180;52915;53.718;19.946;2022-12-01T14:54:47;101745.20;;;3.30
65765;BMP180;52915;53.718;19.946;2022-12-01T15:00:15;101748.20;;;3.40
65765;BMP180;52915;53.718;19.946;2022-12-01T15:05:27;101745.40;;;3.30
65765;BMP180;52915;53.718;19.946;2022-12-01T15:10:32;101745.80;;;3.10
65765;BMP180;52915;53.718;19.946;2022-12-01T15:15:58;101743.40;;;3.10
65765;BMP180;52915;53.718;19.946;2022-12-01T15:21:31;101742.00;;;3.28
65765;BMP180;52915;53.718;19.946;2022-12-01T15:26:46;101734.20;;;3.20
65765;BMP180;52915;53.718;19.946;2022-12-01T15:31:58;101742.40;;;3.08
65765;BMP180;52915;53.718;19.946;2022-12-01T15:37:07;101739.80;;;3.04
65765;BMP180;52915;53.718;19.946;2022-12-01T15:42:25;101748.80;;;3.20
65765;BMP180;52915;53.718;19.946;2022-12-01T15:47:45;101741.40;;;3.20
65765;BMP180;52915;53.718;19.946;2022-12-01T15:52:49;101737.20;;;3.00
65765;BMP180;52915;53.718;19.946;2022-12-01T15:57:54;101739.00;;;3.00
65765;BMP180;52915;53.718;19.946;2022-12-01T16:02:59;101741.00;;;3.20
65765;BMP180;52915;53.718;19.946;2022-12-01T16:08:33;101732.40;;;3.20
65765;BMP180;52915;53.718;19.946;2022-12-01T16:24:32;101732.40;;;2.90
65765;BMP180;52915;53.718;19.946;2022-12-01T16:35:01;101741.80;;;3.10
65765;BMP180;52915;53.718;19.946;2022-12-01T16:40:07;101743.60;;;2.84
65765;BMP180;52915;53.718;19.946;2022-12-01T16:45:13;101750.00;;;2.86
65765;BMP180;52915;53.718;19.946;2022-12-01T16:50:20;101748.20;;;2.90
65765;BMP180;52915;53.718;19.946;2022-12-01T16:55:47;101749.80;;;2.72
65765;BMP180;52915;53.718;19.946;2022-12-01T17:00:54;101754.80;;;2.50
65765;BMP180;52915;53.718;19.946;2022-12-01T17:06:01;101743.60;;;2.50
65765;BMP180;52915;53.718;19.946;2022-12-01T17:11:05;101755.80;;;2.30
65765;BMP180;52915;53.718;19.946;2022-12-01T17:16:10;101755.20;;;2.20
65765;BMP180;52915;53.718;19.946;2022-12-01T17:21:20;101758.60;;;2.30
65765;BMP180;52915;53.718;19.946;2022-12-01T17:26:25;101752.40;;;2.30
65765;BMP180;52915;53.718;19.946;2022-12-01T17:31:31;101748.40;;;2.30
65765;BMP180;52915;53.718;19.946;2022-12-01T17:36:36;101746.40;;;2.30
65765;BMP180;52915;53.718;19.946;2022-12-01T17:41:41;101734.00;;;2.40
65765;BMP180;52915;53.718;19.946;2022-12-01T17:46:49;101734.80;;;2.30
65765;BMP180;52915;53.718;19.946;2022-12-01T17:51:55;101729.40;;;2.18
65765;BMP180;52915;53.718;19.946;2022-12-01T17:57:01;101735.00;;;2.00
65765;BMP180;52915;53.718;19.946;2022-12-01T18:02:12;101735.80;;;2.10
65765;BMP180;52915;53.718;19.946;2022-12-01T18:07:17;101734.00;;;2.30
65765;BMP180;52915;53.718;19.946;2022-12-01T18:12:21;101735.00;;;2.18
65765;BMP180;52915;53.718;19.946;2022-12-01T18:17:27;101728.80;;;2.00
65765;BMP180;52915;53.718;19.946;2022-12-01T18:22:33;101723.80;;;1.90
65765;BMP180;52915;53.718;19.946;2022-12-01T18:27:37;101722.60;;;2.06
65765;BMP180;52915;53.718;19.946;2022-12-01T18:32:44;101727.60;;;2.30
65765;BMP180;52915;53.718;19.946;2022-12-01T18:37:48;101730.60;;;2.20
65765;BMP180;52915;53.718;19.946;2022-12-01T18:42:55;101735.20;;;2.00
65765;BMP180;52915;53.718;19.946;2022-12-01T18:48:05;101729.20;;;1.90
65765;BMP180;52915;53.718;19.946;2022-12-01T18:53:15;101729.80;;;1.80
65765;BMP180;52915;53.718;19.946;2022-12-01T18:58:24;101736.40;;;2.00
65765;BMP180;52915;53.718;19.946;2022-12-01T19:03:32;101736.80;;;2.10
65765;BMP180;52915;53.718;19.946;2022-12-01T19:08:38;101728.40;;;2.00
65765;BMP180;52915;53.718;19.946;2022-12-01T19:13:44;101725.20;;;1.80
65765;BMP180;52915;53.718;19.946;2022-12-01T19:18:53;101727.60;;;1.70
65765;BMP180;52915;53.718;19.946;2022-12-01T19:24:01;101730.20;;;1.80
65765;BMP180;52915;53.718;19.946;2022-12-01T19:29:07;101738.60;;;1.90
65765;BMP180;52915;53.718;19.946;2022-12-01T19:34:20;101735.80;;;1.70
65765;BMP180;52915;53.718;19.946;2022-12-01T19:39:27;101736.40;;;1.60
65765;BMP180;52915;53.718;19.946;2022-12-01T19:44:32;101736.40;;;1.50
65765;BMP180;52915;53.718;19.946;2022-12-01T19:49:41;101734.40;;;1.60
65765;BMP180;52915;53.718;19.946;2022-12-01T19:54:52;101730.40;;;1.80
65765;BMP180;52915;53.718;19.946;2022-12-01T19:59:59;101733.40;;;1.70
65765;BMP180;52915;53.718;19.946;2022-12-01T20:05:08;101735.20;;;1.60
65765;BMP180;52915;53.718;19.946;2022-12-01T20:10:14;101737.60;;;1.50
65765;BMP180;52915;53.718;19.946;2022-12-01T20:15:24;101742.80;;;1.70
65765;BMP180;52915;53.718;19.946;2022-12-01T20:20:33;101737.20;;;1.70
65765;BMP180;52915;53.718;19.946;2022-12-01T20:25:38;101733.80;;;1.50
65765;BMP180;52915;53.718;19.946;2022-12-01T20:30:42;101734.80;;;1.40
65765;BMP180;52915;53.718;19.946;2022-12-01T20:35:48;101727.80;;;1.60
65765;BMP180;52915;53.718;19.946;2022-12-01T20:40:57;101736.00;;;1.50
65765;BMP180;52915;53.718;19.946;2022-12-01T20:46:04;101740.60;;;1.40
65765;BMP180;52915;53.718;19.946;2022-12-01T20:51:11;101736.80;;;1.32
65765;BMP180;52915;53.718;19.946;2022-12-01T20:56:16;101737.60;;;1.50
65765;BMP180;52915;53.718;19.946;2022-12-01T21:01:22;101740.00;;;1.50
65765;BMP180;52915;53.718;19.946;2022-12-01T21:06:27;101737.60;;;1.40
65765;BMP180;52915;53.718;19.946;2022-12-01T21:11:48;101738.80;;;1.30
65765;BMP180;52915;53.718;19.946;2022-12-01T21:18:08;101744.80;;;1.20
65765;BMP180;52915;53.718;19.946;2022-12-01T21:23:13;101752.60;;;1.20
65765;BMP180;52915;53.718;19.946;2022-12-01T21:28:24;101746.80;;;1.06
65765;BMP180;52915;53.718;19.946;2022-12-01T21:33:34;101750.00;;;1.00
65765;BMP180;52915;53.718;19.946;2022-12-01T21:38:42;101751.20;;;1.20
65765;BMP180;52915;53.718;19.946;2022-12-01T21:43:46;101741.60;;;1.30
65765;BMP180;52915;53.718;19.946;2022-12-01T21:48:50;101748.40;;;1.22
65765;BMP180;52915;53.718;19.946;2022-12-01T21:53:55;101744.40;;;1.10
65765;BMP180;52915;53.718;19.946;2022-12-01T21:59:22;101753.00;;;1.00
65765;BMP180;52915;53.718;19.946;2022-12-01T22:04:30;101749.60;;;1.10
65765;BMP180;52915;53.718;19.946;2022-12-01T22:09:35;101746.40;;;1.20
65765;BMP180;52915;53.718;19.946;2022-12-01T22:14:38;101743.40;;;1.10
65765;BMP180;52915;53.718;19.946;2022-12-01T22:19:56;101740.60;;;0.98
65765;BMP180;52915;53.718;19.946;2022-12-01T22:25:21;101740.00;;;0.88
65765;BMP180;52915;53.718;19.946;2022-12-01T22:30:24;101738.40;;;0.80
65765;BMP180;52915;53.718;19.946;2022-12-01T22:35:40;101735.80;;;1.00
65765;BMP180;52915;53.718;19.946;2022-12-01T22:56:43;101727.40;;;0.80
65765;BMP180;52915;53.718;19.946;2022-12-01T23:02:00;101720.00;;;0.90
65765;BMP180;52915;53.718;19.946;2022-12-01T23:07:26;101726.40;;;0.90
65765;BMP180;52915;53.718;19.946;2022-12-01T23:12:32;101714.60;;;0.80
65765;BMP180;52915;53.718;19.946;2022-12-01T23:17:37;101711.80;;;0.60
65765;BMP180;52915;53.718;19.946;2022-12-01T23:22:41;101713.00;;;0.60
65765;BMP180;52915;53.718;19.946;2022-12-01T23:27:48;101718.80;;;0.80
65765;BMP180;52915;53.718;19.946;2022-12-01T23:33:27;101711.80;;;0.70
65765;BMP180;52915;53.718;19.946;2022-12-01T23:38:41;101712.80;;;0.46
65765;BMP180;52915;53.718;19.946;2022-12-01T23:43:44;101705.40;;;0.30
65765;BMP180;52915;53.718;19.946;2022-12-01T23:48:52;101704.20;;;0.40
65765;BMP180;52915;53.718;19.946;2022-12-01T23:53:59;101701.60;;;0.50
65765;BMP180;52915;53.718;19.946;2022-12-01T23:59:01;101706.00;;;0.30
